createdAt,value
2023-01-17T00:00:00.309Z,0.8
2023-01-17T00:05:00.303Z,0.8
2023-01-17T00:10:00.303Z,1.2
2023-01-17T00:15:00.308Z,1.1
2023-01-17T00:20:00.318Z,3.7
2023-01-17T00:25:00.311Z,3.5
2023-01-17T00:30:00.303Z,0.8
2023-01-17T00:35:00.305Z,6.8
2023-01-17T00:40:00.312Z,2.7
2023-01-17T00:45:00.323Z,2.6
2023-01-17T00:50:00.317Z,4.8
2023-01-17T00:55:00.320Z,1.6
2023-01-17T01:00:00.322Z,2.6
2023-01-17T01:05:00.301Z,2.1
2023-01-17T01:10:00.319Z,8.7
2023-01-17T01:15:00.317Z,3.5
2023-01-17T01:20:00.309Z,2.2
2023-01-17T01:25:00.293Z,2.6
2023-01-17T01:30:00.318Z,1.6
2023-01-17T01:35:00.344Z,2.3
2023-01-17T01:40:00.308Z,2.6
2023-01-17T01:45:00.336Z,2.1
2023-01-17T01:50:00.306Z,1.1
2023-01-17T01:55:00.301Z,0.6
2023-01-17T02:00:00.301Z,1.6
2023-01-17T02:05:01.931Z,3.0
2023-01-17T02:10:00.304Z,4.0
2023-01-17T02:15:00.328Z,1.4
2023-01-17T02:20:00.304Z,2.4
2023-01-17T02:25:00.301Z,0.4
2023-01-17T02:30:00.369Z,1.3
2023-01-17T02:35:00.316Z,0.8
2023-01-17T02:40:00.319Z,1.1
2023-01-17T02:45:00.328Z,1.3
2023-01-17T02:50:00.302Z,1.1
2023-01-17T02:55:00.310Z,2.4
2023-01-17T03:00:00.314Z,2.3
2023-01-17T03:05:00.301Z,2.0
2023-01-17T03:10:00.338Z,2.9
2023-01-17T03:15:00.418Z,2.1
2023-01-17T03:20:00.317Z,3.6
2023-01-17T03:25:00.334Z,2.3
2023-01-17T03:30:00.320Z,3.7
2023-01-17T03:35:00.316Z,5.8
2023-01-17T03:40:00.311Z,1.8
2023-01-17T03:45:00.303Z,3.6
2023-01-17T03:50:00.306Z,3.6
2023-01-17T03:55:00.306Z,4.0
2023-01-17T04:00:00.334Z,2.4
2023-01-17T04:05:00.346Z,4.8
2023-01-17T04:10:00.366Z,1.2
2023-01-17T04:15:00.341Z,4.9
2023-01-17T04:20:00.308Z,4.3
2023-01-17T04:25:00.340Z,4.5
2023-01-17T04:30:00.318Z,3.2
2023-01-17T04:35:00.323Z,5.2
2023-01-17T04:40:00.315Z,3.0
2023-01-17T04:45:00.301Z,4.3
2023-01-17T04:50:00.314Z,4.4
2023-01-17T04:55:00.340Z,4.4
2023-01-17T05:00:00.308Z,3.6
2023-01-17T05:05:00.335Z,5.2
2023-01-17T05:10:00.323Z,4.5
2023-01-17T05:15:00.321Z,6.7
2023-01-17T05:20:00.321Z,4.6
2023-01-17T05:25:00.296Z,3.7
2023-01-17T05:30:00.322Z,7.4
2023-01-17T05:35:00.306Z,5.1
2023-01-17T05:40:00.327Z,3.3
2023-01-17T05:45:00.325Z,3.0
2023-01-17T05:50:00.307Z,1.6
2023-01-17T05:55:00.314Z,3.3
2023-01-17T06:00:00.302Z,4.0
2023-01-17T06:05:03.173Z,4.5
2023-01-17T06:10:00.320Z,8.3
2023-01-17T06:15:00.370Z,6.2
2023-01-17T06:20:00.313Z,5.6
2023-01-17T06:25:00.323Z,6.5
2023-01-17T06:30:00.356Z,3.6
2023-01-17T06:35:00.329Z,6.3
2023-01-17T06:40:00.301Z,5.2
2023-01-17T06:45:00.344Z,4.3
2023-01-17T06:50:00.317Z,7.0
2023-01-17T06:55:00.340Z,4.9
2023-01-17T07:00:00.292Z,6.4
2023-01-17T07:05:00.306Z,8.4
2023-01-17T07:10:00.349Z,7.2
2023-01-17T07:15:00.341Z,10.7
2023-01-17T07:20:00.331Z,8.2
2023-01-17T07:25:00.333Z,5.7
2023-01-17T07:30:00.361Z,7.5
2023-01-17T07:35:00.318Z,9.4
2023-01-17T07:40:00.312Z,9.1
2023-01-17T07:45:00.324Z,7.7
2023-01-17T07:50:00.313Z,9.5
2023-01-17T07:55:00.326Z,6.1
2023-01-17T08:00:00.331Z,6.6
2023-01-17T08:05:00.316Z,8.7
2023-01-17T08:10:00.317Z,8.6
2023-01-17T08:15:00.321Z,6.0
2023-01-17T08:20:00.311Z,9.3
2023-01-17T08:25:00.339Z,7.8
2023-01-17T08:30:00.307Z,9.8
2023-01-17T08:35:00.305Z,7.6
2023-01-17T08:40:00.316Z,6.0
2023-01-17T08:45:00.300Z,7.1
2023-01-17T08:50:00.303Z,9.4
2023-01-17T08:55:00.334Z,8.5
2023-01-17T09:00:00.326Z,7.4
2023-01-17T09:05:00.302Z,7.6
2023-01-17T09:10:00.323Z,6.7
2023-01-17T09:15:00.321Z,8.6
2023-01-17T09:20:00.339Z,7.8
2023-01-17T09:25:00.314Z,12.1
2023-01-17T09:30:00.344Z,9.5
2023-01-17T09:35:00.332Z,14.4
2023-01-17T09:40:00.317Z,7.0
2023-01-17T09:45:00.313Z,10.5
2023-01-17T09:50:00.337Z,6.5
2023-01-17T09:55:00.319Z,4.6
2023-01-17T10:00:03.549Z,8.7
2023-01-17T10:05:00.406Z,5.9
2023-01-17T10:10:00.332Z,8.8
2023-01-17T10:15:00.306Z,8.1
2023-01-17T10:20:00.327Z,9.9
2023-01-17T10:25:00.318Z,8.2
2023-01-17T10:30:00.342Z,6.8
2023-01-17T10:35:00.312Z,7.7
2023-01-17T10:40:00.310Z,9.4
2023-01-17T10:45:00.309Z,8.4
2023-01-17T10:50:00.331Z,8.6
2023-01-17T10:55:00.310Z,11.4
2023-01-17T11:00:00.301Z,10.6
2023-01-17T11:05:00.321Z,10.1
2023-01-17T11:10:00.363Z,10.9
2023-01-17T11:15:00.304Z,9.0
2023-01-17T11:20:00.348Z,10.1
2023-01-17T11:25:00.300Z,9.8
2023-01-17T11:30:00.308Z,7.1
2023-01-17T11:35:00.300Z,9.3
2023-01-17T11:40:00.310Z,7.5
2023-01-17T11:45:00.300Z,7.1
2023-01-17T11:50:00.298Z,8.3
2023-01-17T11:55:00.327Z,8.3
2023-01-17T12:00:00.301Z,11.6
2023-01-17T12:05:00.435Z,6.3
2023-01-17T12:10:00.307Z,9.5
2023-01-17T12:15:00.307Z,6.2
2023-01-17T12:20:00.312Z,7.7
2023-01-17T12:25:00.309Z,6.6
2023-01-17T12:30:00.349Z,9.2
2023-01-17T12:35:00.309Z,0.0
2023-01-17T12:40:00.301Z,7.8
2023-01-17T12:45:00.302Z,9.2
2023-01-17T12:50:00.335Z,6.4
2023-01-17T12:55:00.301Z,9.8
2023-01-17T13:00:00.329Z,4.5
2023-01-17T13:05:00.300Z,6.4
2023-01-17T13:10:00.329Z,7.3
2023-01-17T13:15:00.363Z,9.5
2023-01-17T13:20:00.305Z,6.5
2023-01-17T13:25:00.329Z,4.8
2023-01-17T13:30:00.317Z,3.5
2023-01-17T13:35:01.606Z,3.5
2023-01-17T13:40:00.332Z,5.0
2023-01-17T13:45:00.339Z,3.4
2023-01-17T13:50:00.338Z,6.5
2023-01-17T13:55:00.306Z,5.4
2023-01-17T14:00:00.339Z,4.3
2023-01-17T14:05:00.328Z,6.5
2023-01-17T14:10:00.326Z,3.8
2023-01-17T14:15:00.297Z,3.8
2023-01-17T14:20:00.310Z,4.2
2023-01-17T14:25:00.299Z,4.3
2023-01-17T14:30:00.338Z,3.4
2023-01-17T14:35:00.322Z,5.2
2023-01-17T14:40:00.332Z,3.9
2023-01-17T14:45:00.319Z,6.6
2023-01-17T14:50:00.331Z,3.8
2023-01-17T14:55:00.326Z,2.6
2023-01-17T15:00:00.332Z,3.2
2023-01-17T15:05:00.312Z,3.7
2023-01-17T15:10:00.302Z,3.1
2023-01-17T15:15:00.304Z,2.9
2023-01-17T15:20:00.308Z,5.5
2023-01-17T15:25:00.310Z,3.3
2023-01-17T15:30:00.355Z,4.6
2023-01-17T15:35:00.322Z,4.7
2023-01-17T15:40:00.304Z,5.0
2023-01-17T15:45:00.299Z,5.0
2023-01-17T15:50:00.313Z,4.5
2023-01-17T15:55:00.312Z,5.2
2023-01-17T16:00:00.306Z,7.9
2023-01-17T16:05:00.314Z,6.1
2023-01-17T16:10:00.311Z,5.4
2023-01-17T16:15:11.876Z,11.0
2023-01-17T16:20:00.409Z,8.2
2023-01-17T16:25:00.297Z,9.0
2023-01-17T16:30:00.331Z,9.7
2023-01-17T16:35:00.338Z,7.8
2023-01-17T16:40:00.414Z,5.3
2023-01-17T16:45:00.306Z,5.1
2023-01-17T16:50:00.468Z,9.0
2023-01-17T16:55:00.313Z,5.8
2023-01-17T17:00:00.304Z,6.1
2023-01-17T17:05:00.332Z,7.8
2023-01-17T17:10:00.304Z,7.8
2023-01-17T17:15:00.309Z,10.0
2023-01-17T17:20:00.337Z,9.5
2023-01-17T17:25:00.305Z,9.1
2023-01-17T17:30:00.304Z,7.2
2023-01-17T17:35:00.311Z,10.8
2023-01-17T17:40:00.335Z,9.3
2023-01-17T17:45:00.299Z,8.9
2023-01-17T17:50:00.318Z,9.4
2023-01-17T17:55:00.306Z,11.5
2023-01-17T18:00:00.308Z,14.4
2023-01-17T18:05:00.403Z,17.5
2023-01-17T18:10:00.325Z,16.6
2023-01-17T18:15:00.309Z,13.3
2023-01-17T18:20:00.326Z,13.9
2023-01-17T18:25:00.298Z,18.5
2023-01-17T18:30:00.326Z,13.7
2023-01-17T18:35:00.315Z,16.3
2023-01-17T18:40:00.300Z,12.2
2023-01-17T18:45:00.305Z,13.3
2023-01-17T18:50:00.310Z,12.7
2023-01-17T18:55:00.305Z,11.6
2023-01-17T19:05:00.600Z,10.8
2023-01-17T19:10:00.862Z,23.2
2023-01-17T19:15:00.597Z,9.5
2023-01-17T19:20:00.690Z,19.3
2023-01-17T19:25:00.607Z,17.0
2023-01-17T19:30:00.876Z,14.5
2023-01-17T19:35:00.608Z,12.7
2023-01-17T19:40:00.601Z,21.9
2023-01-17T19:45:00.624Z,24.6
2023-01-17T19:50:00.616Z,15.0
2023-01-17T19:55:00.662Z,12.9
2023-01-17T20:00:00.702Z,27.3
2023-01-17T20:05:00.591Z,17.7
2023-01-17T20:10:00.632Z,18.1
2023-01-17T20:15:00.687Z,20.5
2023-01-17T20:20:00.719Z,18.4
2023-01-17T20:25:00.615Z,11.4
2023-01-17T20:30:11.055Z,15.7
2023-01-17T20:35:00.636Z,15.6
2023-01-17T20:40:01.024Z,16.6
2023-01-17T20:45:00.588Z,12.5
2023-01-17T20:50:00.754Z,13.6
2023-01-17T20:55:00.683Z,8.8
2023-01-17T21:00:01.552Z,12.7
2023-01-17T21:05:00.653Z,8.8
2023-01-17T21:10:00.592Z,9.0
2023-01-17T21:15:00.641Z,8.4
2023-01-17T21:20:00.672Z,11.5
2023-01-17T21:25:00.636Z,11.4
2023-01-17T21:30:00.658Z,14.4
2023-01-17T21:35:00.620Z,9.1
2023-01-17T21:40:00.630Z,12.5
2023-01-17T21:45:00.587Z,9.4
2023-01-17T21:50:00.675Z,8.7
2023-01-17T21:55:00.597Z,8.7
2023-01-17T22:00:00.759Z,10.1
2023-01-17T22:05:00.840Z,10.1
2023-01-17T22:10:00.778Z,11.1
2023-01-17T22:15:01.124Z,10.1
2023-01-17T22:20:00.602Z,10.7
2023-01-17T22:25:00.608Z,9.8
2023-01-17T22:30:00.623Z,13.3
2023-01-17T22:35:00.613Z,9.6
2023-01-17T22:40:00.609Z,9.6
2023-01-17T22:45:00.675Z,10.8
2023-01-17T22:50:00.860Z,9.5
2023-01-17T22:55:00.636Z,9.7
2023-01-17T23:00:00.615Z,8.5
2023-01-17T23:05:00.598Z,10.2
2023-01-17T23:10:01.351Z,0.0
2023-01-17T23:15:00.589Z,6.5
2023-01-17T23:20:00.591Z,10.0
2023-01-17T23:25:00.611Z,10.0
2023-01-17T23:30:00.585Z,8.6
2023-01-17T23:35:00.810Z,9.0
2023-01-17T23:40:00.722Z,9.4
2023-01-17T23:45:00.624Z,9.0
2023-01-17T23:50:00.693Z,12.6
2023-01-17T23:55:00.587Z,11.3
